createdAt,value
2022-08-11T00:04:39.584Z,2.93
2022-08-11T00:09:42.318Z,2.40
2022-08-11T00:14:45.008Z,3.00
2022-08-11T00:20:11.856Z,2.63
2022-08-11T00:25:19.078Z,2.80
2022-08-11T00:30:21.290Z,2.70
2022-08-11T00:35:55.336Z,2.80
2022-08-11T00:41:00.021Z,2.20
2022-08-11T00:46:26.511Z,2.47
2022-08-11T00:52:05.653Z,2.83
2022-08-11T00:57:36.860Z,2.15
2022-08-11T01:02:59.624Z,2.60
2022-08-11T01:08:13.749Z,2.30
2022-08-11T01:13:37.652Z,3.03
2022-08-11T01:18:55.016Z,2.03
2022-08-11T01:24:18.552Z,2.20
2022-08-11T01:29:58.337Z,1.87
2022-08-11T01:35:30.965Z,1.95
2022-08-11T01:40:42.598Z,1.93
2022-08-11T01:45:56.594Z,1.80
2022-08-11T01:51:31.261Z,1.70
2022-08-11T01:56:57.338Z,2.30
2022-08-11T02:02:46.220Z,2.20
2022-08-11T02:08:02.002Z,2.03
2022-08-11T02:13:11.755Z,1.80
2022-08-11T02:18:53.560Z,2.23
2022-08-11T02:24:07.882Z,1.80
2022-08-11T02:29:13.905Z,1.63
2022-08-11T02:34:39.536Z,2.00
2022-08-11T02:40:25.386Z,2.30
2022-08-11T02:45:46.510Z,3.03
2022-08-11T02:51:10.009Z,1.93
2022-08-11T02:56:23.207Z,1.80
2022-08-11T03:01:50.610Z,1.97
2022-08-11T03:06:54.416Z,2.67
2022-08-11T03:12:30.122Z,2.33
2022-08-11T03:18:10.799Z,2.73
2022-08-11T03:23:44.960Z,2.20
2022-08-11T03:29:18.333Z,2.83
2022-08-11T03:34:27.483Z,2.80
2022-08-11T03:39:59.592Z,3.03
2022-08-11T03:45:29.181Z,3.90
2022-08-11T03:50:44.879Z,3.25
2022-08-11T03:56:24.939Z,3.63
2022-08-11T04:01:55.750Z,3.40
2022-08-11T04:07:07.041Z,3.57
2022-08-11T04:12:35.639Z,3.47
2022-08-11T04:18:11.469Z,3.05
2022-08-11T04:24:35.439Z,3.23
2022-08-11T04:29:09.699Z,3.00
2022-08-11T04:34:51.837Z,3.07
2022-08-11T04:40:12.652Z,3.08
2022-08-11T04:46:01.519Z,2.20
2022-08-11T04:51:48.745Z,2.80
2022-08-11T04:57:20.220Z,2.73
2022-08-11T05:02:50.616Z,1.83
2022-08-11T05:08:15.306Z,1.70
2022-08-11T05:13:47.184Z,2.23
2022-08-11T05:19:12.116Z,2.70
2022-08-11T05:24:54.747Z,2.20
2022-08-11T05:30:34.488Z,2.37
2022-08-11T05:36:01.649Z,2.57
2022-08-11T05:41:23.886Z,1.70
2022-08-11T05:46:46.727Z,1.83
2022-08-11T05:52:12.963Z,1.83
2022-08-11T05:57:49.461Z,2.50
2022-08-11T06:02:55.630Z,2.00
2022-08-11T06:08:01.315Z,2.00
2022-08-11T06:13:05.309Z,2.17
2022-08-11T06:18:12.323Z,2.13
2022-08-11T06:23:18.234Z,1.80
2022-08-11T06:28:30.828Z,1.90
2022-08-11T06:33:51.512Z,2.03
2022-08-11T06:39:10.187Z,2.30
2022-08-11T06:44:13.451Z,2.05
2022-08-11T06:49:35.712Z,2.20
2022-08-11T06:54:41.663Z,4.80
2022-08-11T07:00:02.860Z,2.37
2022-08-11T07:05:21.824Z,1.57
2022-08-11T07:11:05.585Z,1.70
2022-08-11T07:16:12.118Z,2.10
2022-08-11T07:22:00.281Z,2.13
2022-08-11T07:27:23.657Z,1.83
2022-08-11T07:32:31.211Z,2.00
2022-08-11T07:37:34.203Z,2.00
2022-08-11T07:42:36.649Z,1.83
2022-08-11T07:47:58.441Z,1.63
2022-08-11T07:53:01.686Z,1.73
2022-08-11T07:58:23.021Z,1.60
2022-08-11T08:03:53.661Z,1.53
2022-08-11T08:09:16.597Z,1.40
2022-08-11T08:14:38.255Z,1.70
2022-08-11T08:19:44.801Z,1.83
2022-08-11T08:24:47.650Z,1.50
2022-08-11T08:30:08.421Z,1.77
2022-08-11T08:35:13.941Z,1.50
2022-08-11T08:40:16.201Z,1.77
2022-08-11T08:45:26.236Z,1.80
2022-08-11T08:50:53.228Z,2.28
2022-08-11T08:55:57.149Z,1.90
2022-08-11T09:01:01.300Z,1.60
2022-08-11T09:06:06.281Z,2.30
2022-08-11T09:11:27.568Z,1.77
2022-08-11T09:16:30.304Z,2.17
2022-08-11T09:21:48.396Z,2.10
2022-08-11T09:27:04.213Z,1.77
2022-08-11T09:32:09.601Z,1.93
2022-08-11T09:37:54.045Z,2.28
2022-08-11T09:43:27.560Z,1.88
2022-08-11T09:48:32.176Z,2.40
2022-08-11T09:53:40.779Z,2.25
2022-08-11T09:58:45.093Z,2.53
2022-08-11T10:03:48.102Z,2.83
2022-08-11T10:08:52.668Z,2.60
2022-08-11T10:14:33.795Z,2.30
2022-08-11T10:19:39.365Z,1.90
2022-08-11T10:25:03.170Z,2.45
2022-08-11T10:30:25.906Z,1.95
2022-08-11T10:35:31.414Z,2.50
2022-08-11T10:40:46.462Z,2.35
2022-08-11T10:46:30.135Z,1.90
2022-08-11T10:51:54.396Z,2.20
2022-08-11T10:57:19.924Z,2.10
2022-08-11T11:02:22.475Z,2.60
2022-08-11T11:07:43.990Z,2.20
2022-08-11T11:13:14.223Z,3.10
2022-08-11T11:18:24.867Z,3.00
2022-08-11T11:23:47.620Z,2.35
2022-08-11T11:29:27.892Z,2.17
2022-08-11T11:34:53.420Z,2.40
2022-08-11T11:39:57.985Z,2.30
2022-08-11T11:45:01.480Z,2.60
2022-08-11T11:50:06.889Z,3.42
2022-08-11T11:55:10.021Z,2.35
2022-08-11T12:00:33.144Z,2.28
2022-08-11T12:05:36.847Z,2.25
2022-08-11T12:11:18.825Z,2.15
2022-08-11T12:16:34.484Z,2.53
2022-08-11T12:22:00.832Z,2.33
2022-08-11T12:27:25.553Z,2.55
2022-08-11T12:32:31.562Z,2.13
2022-08-11T12:37:38.544Z,2.10
2022-08-11T12:43:20.806Z,2.25
2022-08-11T12:48:58.358Z,2.60
2022-08-11T12:54:18.928Z,2.10
2022-08-11T12:59:40.628Z,2.47
2022-08-11T13:04:56.487Z,2.40
2022-08-11T13:10:02.025Z,3.10
2022-08-11T13:15:06.283Z,2.63
2022-08-11T13:20:10.774Z,5.45
2022-08-11T13:25:15.104Z,2.40
2022-08-11T13:30:40.357Z,2.13
2022-08-11T13:35:49.760Z,2.50
2022-08-11T13:40:56.073Z,3.65
2022-08-11T13:46:18.749Z,3.20
2022-08-11T13:51:34.700Z,2.40
2022-08-11T13:56:42.619Z,3.75
2022-08-11T14:02:21.285Z,3.03
2022-08-11T14:07:15.381Z,2.70
2022-08-11T14:12:45.666Z,5.72
2022-08-11T14:18:05.282Z,4.22
2022-08-11T14:23:08.962Z,2.55
2022-08-11T14:28:29.586Z,2.40
2022-08-11T14:33:58.074Z,2.45
2022-08-11T14:38:57.926Z,2.20
2022-08-11T14:44:18.664Z,3.55
2022-08-11T14:49:22.333Z,3.55
2022-08-11T14:54:48.570Z,3.47
2022-08-11T14:59:51.395Z,2.85
2022-08-11T15:04:53.709Z,2.42
2022-08-11T15:10:15.521Z,3.20
2022-08-11T15:15:56.615Z,2.60
2022-08-11T15:21:17.083Z,2.92
2022-08-11T15:26:41.756Z,3.47
2022-08-11T15:32:02.500Z,6.18
2022-08-11T15:37:26.814Z,5.20
2022-08-11T15:42:48.087Z,12.55
2022-08-11T15:47:58.412Z,12.48
2022-08-11T15:53:12.689Z,15.35
2022-08-11T15:58:34.406Z,13.50
2022-08-11T16:04:12.584Z,8.90
2022-08-11T16:09:18.310Z,6.37
2022-08-11T16:14:41.821Z,5.57
2022-08-11T16:19:44.754Z,5.32
2022-08-11T16:27:03.507Z,4.03
2022-08-11T16:30:15.194Z,4.30
2022-08-11T16:35:38.457Z,4.05
2022-08-11T16:40:42.426Z,7.65
2022-08-11T16:46:03.697Z,6.75
2022-08-11T16:51:07.629Z,5.15
2022-08-11T16:56:12.341Z,3.35
2022-08-11T17:01:15.368Z,5.40
2022-08-11T17:06:37.106Z,4.40
2022-08-11T17:12:08.469Z,5.13
2022-08-11T17:17:26.885Z,5.93
2022-08-11T17:22:49.156Z,7.53
2022-08-11T17:27:52.912Z,7.43
2022-08-11T17:33:13.811Z,8.63
2022-08-11T17:38:20.952Z,6.75
2022-08-11T17:43:41.709Z,6.97
2022-08-11T17:48:47.813Z,8.00
2022-08-11T17:54:23.962Z,8.20
2022-08-11T17:59:49.112Z,7.68
2022-08-11T18:04:52.959Z,6.38
2022-08-11T18:10:13.799Z,6.47
2022-08-11T18:15:35.224Z,6.43
2022-08-11T18:20:56.385Z,8.17
2022-08-11T18:26:19.816Z,7.13
2022-08-11T18:31:41.434Z,9.43
2022-08-11T18:37:19.563Z,8.37
2022-08-11T18:42:46.866Z,11.37
2022-08-11T18:48:11.407Z,10.10
2022-08-11T18:53:33.706Z,11.30
2022-08-11T18:58:55.106Z,12.47
2022-08-11T19:04:17.473Z,11.57
2022-08-11T19:09:43.183Z,12.70
2022-08-11T19:15:05.017Z,12.23
2022-08-11T19:20:35.499Z,11.23
2022-08-11T19:25:56.964Z,11.93
2022-08-11T19:31:19.283Z,13.03
2022-08-11T19:36:41.724Z,12.47
2022-08-11T19:42:03.547Z,14.13
2022-08-11T19:47:24.305Z,13.67
2022-08-11T19:52:48.217Z,18.70
2022-08-11T19:58:09.557Z,26.07
2022-08-11T20:03:30.921Z,31.67
2022-08-11T20:08:56.439Z,26.30
2022-08-11T20:14:20.210Z,19.40
2022-08-11T20:19:54.717Z,22.50
2022-08-11T20:25:17.659Z,34.80
2022-08-11T20:30:38.344Z,32.67
2022-08-11T20:36:01.620Z,42.13
2022-08-11T20:41:23.426Z,24.83
2022-08-11T20:46:44.715Z,19.60
2022-08-11T20:52:06.476Z,13.63
2022-08-11T20:57:58.629Z,8.60
2022-08-11T21:03:12.911Z,6.37
2022-08-11T21:08:35.233Z,7.90
2022-08-11T21:13:58.618Z,11.43
2022-08-11T21:20:01.152Z,12.63
2022-08-11T21:25:28.006Z,14.33
2022-08-11T21:30:49.589Z,47.10
2022-08-11T21:36:10.851Z,37.10
2022-08-11T21:41:31.670Z,49.97
2022-08-11T21:46:53.429Z,65.37
2022-08-11T21:52:14.628Z,60.70
2022-08-11T21:57:35.803Z,65.73
2022-08-11T22:03:08.902Z,57.83
2022-08-11T22:08:30.141Z,40.07
2022-08-11T22:14:00.785Z,33.23
2022-08-11T22:19:27.615Z,30.77
2022-08-11T22:24:49.390Z,27.40
2022-08-11T22:30:10.104Z,21.83
2022-08-11T22:35:31.399Z,21.27
2022-08-11T22:40:53.071Z,16.07
2022-08-11T22:46:13.858Z,23.03
2022-08-11T22:51:37.101Z,20.60
2022-08-11T22:56:57.901Z,23.43
2022-08-11T23:02:19.314Z,29.33
2022-08-11T23:07:50.734Z,32.77
2022-08-11T23:13:13.194Z,35.60
2022-08-11T23:18:34.424Z,28.97
2022-08-11T23:23:55.922Z,33.83
2022-08-11T23:29:17.085Z,32.67
2022-08-11T23:35:02.704Z,35.93
2022-08-11T23:40:21.403Z,30.43
2022-08-11T23:45:44.901Z,31.67
2022-08-11T23:51:06.573Z,28.83
2022-08-11T23:56:29.205Z,23.23
